Time;durP1;ratioP1;P1;durP2;ratioP2;P2;SDS_P1;SDS_P2;PMS_P1;PMS_P2;Temp;Humidity;BMP_temperature;BMP_pressure;BME280_temperature;BME280_humidity;BME280_pressure;Samples;Min_cycle;Max_cycle;Signal;HPM_P1;HPM_P2
2021/07/26 00:01:58;;;;;;;;;;;;;;;16.22;88.59;101609.34;5136051;27;19923;-71
2021/07/26 00:04:25;;;;;;;;;;;;;;;16.16;87.91;101609.72;5135406;27;19930;-71
2021/07/26 00:06:52;;;;;;;;;;;;;;;16.15;88.37;101602.81;5135645;27;19923;-71
2021/07/26 00:09:18;;;;;;;;;;;;;;;16.06;88.70;101606.88;5135388;27;20293;-71
2021/07/26 00:11:45;;;;;;;;;;;;;;;16.08;89.27;101612.84;5135669;27;20332;-71
2021/07/26 00:14:11;;;;;;;;;;;;;;;16.25;88.91;101612.59;5135796;27;19931;-73
2021/07/26 00:16:39;;;;;;;;;;;;;;;16.38;88.22;101603.94;5135543;27;19936;-72
2021/07/26 00:19:06;;;;;;;;;;;;;;;16.15;88.92;101611.53;5135700;27;19928;-72
2021/07/26 00:21:32;;;;;;;;;;;;;;;16.03;89.19;101612.31;5135113;27;19923;-73
2021/07/26 00:23:59;;;;;;;;;;;;;;;15.93;89.94;101612.06;5135143;27;19930;-72
2021/07/26 00:26:26;;;;;;;;;;;;;;;16.25;88.98;101611.78;5134939;27;20397;-73
2021/07/26 00:28:54;;;;;;;;;;;;;;;16.29;88.66;101616.72;5135448;27;19976;-72
2021/07/26 00:31:20;;;;;;;;;;;;;;;16.14;89.19;101620.34;5134885;27;19930;-72
2021/07/26 00:34:07;;;;;;;;;;;;;;;16.22;88.77;101612.81;5135612;27;19935;-73
2021/07/26 00:36:35;;;;;;;;;;;;;;;16.41;88.48;101611.59;5135115;27;19927;-72
2021/07/26 00:39:02;;;;;;;;;;;;;;;16.51;88.07;101615.31;5134862;27;20381;-72
2021/07/26 00:41:28;;;;;;;;;;;;;;;16.28;88.70;101614.19;5134462;27;20297;-72
2021/07/26 00:43:55;;;;;;;;;;;;;;;16.03;89.65;101612.31;5135381;27;19931;-72
2021/07/26 00:46:21;;;;;;;;;;;;;;;15.94;89.42;101612.91;5134890;27;19923;-72
2021/07/26 00:48:48;;;;;;;;;;;;;;;15.91;90.25;101615.75;5134544;27;19930;-72
2021/07/26 00:51:15;;;;;;;;;;;;;;;15.77;90.94;101620.06;5135045;27;19931;-72
2021/07/26 00:53:44;;;;;;;;;;;;;;;15.75;90.63;101616.72;5134613;27;19923;-73
2021/07/26 00:56:10;;;;;;;;;;;;;;;15.72;90.01;101610.78;5134949;27;19924;-72
2021/07/26 00:58:37;;;;;;;;;;;;;;;15.64;90.10;101614.72;5134340;27;19928;-72
2021/07/26 01:01:04;;;;;;;;;;;;;;;15.62;90.61;101610.53;5134762;27;19923;-72
2021/07/26 01:03:30;;;;;;;;;;;;;;;15.51;90.91;101618.19;5134216;27;19930;-72
2021/07/26 01:05:58;;;;;;;;;;;;;;;15.85;90.38;101614.31;5134372;27;19930;-72
2021/07/26 01:08:24;;;;;;;;;;;;;;;16.02;89.11;101610.63;5134381;27;19923;-72
2021/07/26 01:10:52;;;;;;;;;;;;;;;16.15;88.76;101608.06;5134401;27;19930;-72
2021/07/26 01:13:19;;;;;;;;;;;;;;;15.91;89.11;101613.13;5134428;27;19924;-72
2021/07/26 01:15:46;;;;;;;;;;;;;;;15.67;89.92;101608.44;5134300;27;19927;-72
2021/07/26 01:18:23;;;;;;;;;;;;;;;15.51;90.17;101608.53;5134212;27;19923;-72
2021/07/26 01:20:51;;;;;;;;;;;;;;;15.35;90.51;101607.81;5134208;27;19923;-72
2021/07/26 01:23:18;;;;;;;;;;;;;;;15.57;90.28;101615.22;5134369;27;19925;-72
2021/07/26 01:25:44;;;;;;;;;;;;;;;15.67;89.78;101613.69;5134223;27;19923;-72
2021/07/26 01:28:13;;;;;;;;;;;;;;;15.63;90.32;101606.94;5134056;27;19923;-72
2021/07/26 01:30:40;;;;;;;;;;;;;;;15.70;89.83;101618.78;5133763;27;19928;-73
2021/07/26 01:33:08;;;;;;;;;;;;;;;15.63;90.13;101618.28;5134193;27;19928;-72
2021/07/26 01:35:34;;;;;;;;;;;;;;;15.58;90.14;101617.72;5134037;27;19923;-73
2021/07/26 01:38:02;;;;;;;;;;;;;;;15.54;89.14;101616.25;5133853;27;19923;-72
2021/07/26 01:40:29;;;;;;;;;;;;;;;15.66;89.61;101612.00;5133976;27;19996;-72
2021/07/26 01:43:01;;;;;;;;;;;;;;;15.82;89.16;101611.91;5133821;27;19931;-72
2021/07/26 01:45:28;;;;;;;;;;;;;;;15.63;89.92;101612.19;5133517;27;20387;-72
2021/07/26 01:47:56;;;;;;;;;;;;;;;15.43;90.77;101608.19;5133417;27;19927;-72
2021/07/26 01:50:23;;;;;;;;;;;;;;;15.43;89.89;101608.19;5133805;27;19924;-72
2021/07/26 01:52:50;;;;;;;;;;;;;;;15.44;89.66;101607.25;5133109;27;19930;-72
2021/07/26 01:55:18;;;;;;;;;;;;;;;15.42;89.76;101614.38;5133871;27;19950;-72
2021/07/26 01:57:45;;;;;;;;;;;;;;;15.44;89.30;101609.88;5133807;27;19924;-72
2021/07/26 02:00:12;;;;;;;;;;;;;;;15.55;88.73;101612.69;5133593;27;20404;-72
2021/07/26 02:02:39;;;;;;;;;;;;;;;15.73;88.77;101618.59;5133299;27;20381;-72
2021/07/26 02:05:06;;;;;;;;;;;;;;;15.58;89.27;101611.63;5133776;27;19930;-72
2021/07/26 02:07:32;;;;;;;;;;;;;;;15.43;89.41;101616.88;5133175;27;19924;-72
2021/07/26 02:09:59;;;;;;;;;;;;;;;15.33;89.02;101618.38;5133361;28;20383;-72
2021/07/26 02:12:27;;;;;;;;;;;;;;;15.22;89.07;101623.47;5133523;28;19923;-72
2021/07/26 02:14:54;;;;;;;;;;;;;;;15.21;89.00;101630.47;5133625;28;19927;-72
2021/07/26 02:17:21;;;;;;;;;;;;;;;15.49;88.39;101634.06;5133465;28;19930;-72
2021/07/26 02:19:47;;;;;;;;;;;;;;;15.72;87.57;101631.78;5133411;28;19923;-72
2021/07/26 02:22:14;;;;;;;;;;;;;;;15.67;87.67;101632.06;5133269;28;19923;-72
2021/07/26 02:24:40;;;;;;;;;;;;;;;15.72;86.93;101635.28;5132938;28;20411;-72
2021/07/26 02:27:07;;;;;;;;;;;;;;;15.56;86.72;101640.56;5133627;28;19927;-72
2021/07/26 02:29:35;;;;;;;;;;;;;;;15.34;87.49;101637.59;5133383;28;19938;-72
2021/07/26 02:32:02;;;;;;;;;;;;;;;15.12;88.70;101645.91;5133476;28;19931;-72
2021/07/26 02:34:28;;;;;;;;;;;;;;;15.23;88.08;101651.34;5133202;28;19931;-72
2021/07/26 02:36:55;;;;;;;;;;;;;;;15.22;88.06;101647.03;5133224;28;19931;-72
2021/07/26 02:39:21;;;;;;;;;;;;;;;15.19;88.36;101650.69;5132950;28;19923;-72
2021/07/26 02:41:48;;;;;;;;;;;;;;;15.30;87.53;101650.03;5133125;28;20375;-72
2021/07/26 02:44:14;;;;;;;;;;;;;;;15.35;87.08;101650.59;5133404;28;19923;-72
2021/07/26 02:46:42;;;;;;;;;;;;;;;15.32;87.92;101653.41;5132880;28;19931;-72
2021/07/26 02:49:09;;;;;;;;;;;;;;;15.33;88.22;101649.00;5133428;28;19923;-72
2021/07/26 02:51:35;;;;;;;;;;;;;;;15.60;86.74;101651.75;5132790;28;19923;-72
2021/07/26 02:54:02;;;;;;;;;;;;;;;15.85;85.76;101654.56;5133360;28;19931;-72
2021/07/26 02:56:29;;;;;;;;;;;;;;;15.68;86.49;101657.34;5132700;28;19931;-72
2021/07/26 02:58:55;;;;;;;;;;;;;;;15.43;87.80;101663.25;5133029;28;19930;-72
2021/07/26 03:01:22;;;;;;;;;;;;;;;15.38;87.95;101660.06;5133007;28;20006;-72
2021/07/26 03:03:50;;;;;;;;;;;;;;;15.39;87.85;101659.16;5135196;27;19923;-72
2021/07/26 03:06:17;;;;;;;;;;;;;;;15.51;87.24;101668.88;5136744;27;20377;-72
2021/07/26 03:08:44;;;;;;;;;;;;;;;15.45;87.59;101653.53;5136752;27;19924;-73
2021/07/26 03:11:11;;;;;;;;;;;;;;;15.39;87.79;101656.53;5136915;27;19924;-72
2021/07/26 03:13:38;;;;;;;;;;;;;;;15.34;88.05;101661.22;5136372;27;19928;-71
2021/07/26 03:16:06;;;;;;;;;;;;;;;15.32;88.07;101658.66;5136654;27;19923;-72
2021/07/26 03:18:32;;;;;;;;;;;;;;;15.48;87.59;101662.97;5136115;27;19976;-72
2021/07/26 03:21:01;;;;;;;;;;;;;;;15.55;87.21;101666.91;5136522;27;20408;-72
2021/07/26 03:23:27;;;;;;;;;;;;;;;15.67;86.61;101668.78;5136464;27;19951;-72
2021/07/26 03:25:54;;;;;;;;;;;;;;;15.84;85.75;101662.50;5136701;27;19931;-72
2021/07/26 03:28:20;;;;;;;;;;;;;;;15.86;86.07;101666.72;5136201;27;20377;-72
2021/07/26 03:30:47;;;;;;;;;;;;;;;15.92;85.71;101669.91;5136932;27;19927;-72
2021/07/26 03:33:14;;;;;;;;;;;;;;;16.21;83.26;101671.53;5136540;27;19923;-72
2021/07/26 03:35:41;;;;;;;;;;;;;;;16.21;83.80;101670.66;5136225;27;19934;-73
2021/07/26 03:38:09;;;;;;;;;;;;;;;15.85;85.62;101669.44;5136182;27;20408;-73
2021/07/26 03:40:36;;;;;;;;;;;;;;;16.00;84.41;101668.47;5136191;27;20383;-72
2021/07/26 03:43:02;;;;;;;;;;;;;;;16.06;84.14;101672.50;5136367;27;19931;-72
2021/07/26 03:45:29;;;;;;;;;;;;;;;16.23;83.26;101666.16;5135926;27;19924;-73
2021/07/26 03:47:59;;;;;;;;;;;;;;;16.23;82.97;101666.16;5135664;27;20366;-73
2021/07/26 03:50:26;;;;;;;;;;;;;;;16.48;82.32;101663.63;5135718;27;19979;-73
2021/07/26 03:52:53;;;;;;;;;;;;;;;16.47;82.10;101667.19;5136216;27;19923;-72
2021/07/26 03:55:22;;;;;;;;;;;;;;;16.29;82.69;101666.63;5135690;27;20408;-73
2021/07/26 03:57:49;;;;;;;;;;;;;;;16.18;83.93;101665.59;5136117;27;19924;-73
2021/07/26 04:00:17;;;;;;;;;;;;;;;16.14;84.31;101667.59;5135965;27;19924;-73
2021/07/26 04:02:44;;;;;;;;;;;;;;;16.19;84.65;101672.56;5135826;27;19977;-73
2021/07/26 04:05:19;;;;;;;;;;;;;;;16.21;84.57;101671.53;5135616;27;20392;-73
2021/07/26 04:07:48;;;;;;;;;;;;;;;16.61;82.81;101668.91;5135921;27;19927;-72
2021/07/26 04:10:14;;;;;;;;;;;;;;;16.84;82.10;101671.84;5135870;27;20030;-72
2021/07/26 04:12:46;;;;;;;;;;;;;;;16.90;81.53;101672.28;5135528;27;19927;-72
2021/07/26 04:15:13;;;;;;;;;;;;;;;16.86;81.80;101675.22;5135296;27;20077;-73
2021/07/26 04:17:40;;;;;;;;;;;;;;;16.90;81.88;101669.66;5135514;27;19927;-72
2021/07/26 04:20:07;;;;;;;;;;;;;;;16.90;82.42;101671.41;5135607;27;19931;-73
2021/07/26 04:22:34;;;;;;;;;;;;;;;16.99;81.93;101678.69;5135135;27;20369;-72
2021/07/26 04:25:01;;;;;;;;;;;;;;;17.29;80.71;101675.78;5135302;27;19923;-72
2021/07/26 04:27:27;;;;;;;;;;;;;;;17.35;80.78;101682.41;5135234;27;19931;-72
2021/07/26 04:29:55;;;;;;;;;;;;;;;17.33;80.81;101681.66;5135222;27;19931;-72
2021/07/26 04:32:22;;;;;;;;;;;;;;;17.29;81.61;101672.28;5135224;27;19923;-72
2021/07/26 04:34:49;;;;;;;;;;;;;;;17.29;81.31;101672.28;5134989;27;19928;-72
2021/07/26 04:37:15;;;;;;;;;;;;;;;17.35;81.32;101674.50;5135028;27;20370;-72
2021/07/26 04:39:42;;;;;;;;;;;;;;;17.48;81.06;101677.13;5135029;27;19946;-72
2021/07/26 04:42:08;;;;;;;;;;;;;;;17.38;81.55;101675.13;5135218;27;19930;-72
2021/07/26 04:44:36;;;;;;;;;;;;;;;17.54;81.22;101676.69;5134591;27;20377;-72
2021/07/26 04:47:05;;;;;;;;;;;;;;;17.54;81.39;101674.91;5134738;27;19923;-72
2021/07/26 04:49:31;;;;;;;;;;;;;;;17.56;81.79;101682.69;5134923;27;19930;-72
2021/07/26 04:51:58;;;;;;;;;;;;;;;17.56;81.41;101673.00;5134720;27;20173;-73
2021/07/26 04:54:24;;;;;;;;;;;;;;;17.61;81.66;101668.25;5134469;27;19923;-73
2021/07/26 04:56:51;;;;;;;;;;;;;;;17.73;81.42;101677.09;5134954;27;20292;-72
2021/07/26 04:59:18;;;;;;;;;;;;;;;17.94;80.74;101672.13;5134943;27;19924;-72
2021/07/26 05:01:44;;;;;;;;;;;;;;;18.23;78.92;101677.06;5134638;27;19923;-72
2021/07/26 05:04:12;;;;;;;;;;;;;;;18.45;77.92;101671.09;5134831;27;19923;-73
2021/07/26 05:06:39;;;;;;;;;;;;;;;18.66;76.87;101666.84;5134095;27;19923;-72
2021/07/26 05:09:05;;;;;;;;;;;;;;;18.64;76.85;101665.28;5134640;27;19930;-73
2021/07/26 05:11:32;;;;;;;;;;;;;;;18.59;77.65;101676.16;5134447;27;19923;-72
2021/07/26 05:13:58;;;;;;;;;;;;;;;18.61;77.47;101678.69;5134333;27;19930;-72
2021/07/26 05:16:25;;;;;;;;;;;;;;;18.45;77.70;101679.81;5134378;27;19924;-73
2021/07/26 05:18:54;;;;;;;;;;;;;;;18.39;77.95;101679.44;5134119;27;20299;-72
2021/07/26 05:21:22;;;;;;;;;;;;;;;18.44;77.74;101674.66;5134412;27;19996;-72
2021/07/26 05:23:49;;;;;;;;;;;;;;;18.52;77.95;101682.00;5134125;27;20014;-73
2021/07/26 05:26:15;;;;;;;;;;;;;;;18.64;77.29;101683.72;5133413;27;19930;-72
2021/07/26 05:28:42;;;;;;;;;;;;;;;18.66;77.95;101684.47;5133818;27;19930;-72
2021/07/26 05:31:08;;;;;;;;;;;;;;;18.85;77.08;101682.13;5134037;27;20418;-72
2021/07/26 05:33:35;;;;;;;;;;;;;;;19.00;76.92;101679.31;5133815;27;20293;-72
2021/07/26 05:36:02;;;;;;;;;;;;;;;19.16;76.21;101671.91;5134297;27;19931;-72
2021/07/26 05:38:30;;;;;;;;;;;;;;;19.19;75.68;101676.97;5133852;27;19923;-73
2021/07/26 05:40:57;;;;;;;;;;;;;;;19.15;74.88;101680.78;5133828;27;19931;-72
2021/07/26 05:43:23;;;;;;;;;;;;;;;19.23;74.90;101690.75;5133774;27;20269;-72
2021/07/26 05:45:50;;;;;;;;;;;;;;;19.43;74.13;101683.94;5133714;27;19934;-72
2021/07/26 05:48:16;;;;;;;;;;;;;;;19.59;73.38;101690.53;5133519;27;20308;-73
2021/07/26 05:50:43;;;;;;;;;;;;;;;19.75;73.64;101682.25;5133811;27;19931;-72
2021/07/26 05:53:10;;;;;;;;;;;;;;;19.85;73.25;101686.81;5133912;27;19924;-72
2021/07/26 05:55:39;;;;;;;;;;;;;;;19.73;72.91;101696.53;5133411;27;19923;-72
2021/07/26 05:58:06;;;;;;;;;;;;;;;19.22;73.91;101687.28;5133541;27;19923;-72
2021/07/26 06:00:42;;;;;;;;;;;;;;;19.79;72.28;101685.50;5133628;27;19945;-72
2021/07/26 06:03:09;;;;;;;;;;;;;;;20.14;70.66;101687.97;5133577;27;20358;-72
2021/07/26 06:05:36;;;;;;;;;;;;;;;20.18;70.78;101699.97;5133436;27;19947;-72
2021/07/26 06:08:02;;;;;;;;;;;;;;;20.19;71.42;101692.88;5133809;27;19924;-72
2021/07/26 06:10:29;;;;;;;;;;;;;;;20.06;71.73;101692.19;5133102;27;19923;-72
2021/07/26 06:12:57;;;;;;;;;;;;;;;20.14;72.35;101690.63;5133474;28;19931;-72
2021/07/26 06:15:23;;;;;;;;;;;;;;;20.15;71.85;101688.81;5133090;28;19938;-72
2021/07/26 06:17:50;;;;;;;;;;;;;;;20.29;69.87;101691.16;5133270;28;20406;-72
2021/07/26 06:20:17;;;;;;;;;;;;;;;20.33;69.28;101697.06;5133669;28;19931;-73
2021/07/26 06:22:43;;;;;;;;;;;;;;;20.38;69.32;101695.69;5133087;28;20278;-72
2021/07/26 06:25:12;;;;;;;;;;;;;;;20.31;69.21;101696.31;5133659;28;19931;-72
2021/07/26 06:27:39;;;;;;;;;;;;;;;20.22;69.51;101700.56;5133089;28;19923;-71
2021/07/26 06:30:07;;;;;;;;;;;;;;;20.31;69.50;101698.97;5133619;28;19924;-71
2021/07/26 06:32:35;;;;;;;;;;;;;;;20.39;68.78;101700.00;5133010;28;19931;-70
2021/07/26 06:35:03;;;;;;;;;;;;;;;20.58;68.51;101702.03;5133208;28;19935;-71
2021/07/26 06:37:29;;;;;;;;;;;;;;;20.61;66.32;101708.88;5133239;27;20346;-71
2021/07/26 06:39:56;;;;;;;;;;;;;;;20.71;67.18;101703.69;5137333;27;19923;-72
2021/07/26 06:42:22;;;;;;;;;;;;;;;20.85;66.12;101704.19;5137395;27;19924;-71
2021/07/26 06:44:49;;;;;;;;;;;;;;;20.74;66.96;101716.63;5137490;27;19924;-70
2021/07/26 06:47:18;;;;;;;;;;;;;;;20.82;66.29;101707.09;5136782;27;19924;-70
2021/07/26 06:49:44;;;;;;;;;;;;;;;20.98;66.29;101717.22;5137242;27;19923;-71
2021/07/26 06:52:11;;;;;;;;;;;;;;;21.15;65.91;101720.25;5137410;27;19927;-71
2021/07/26 06:54:38;;;;;;;;;;;;;;;21.19;66.78;101724.31;5136858;27;19998;-71
2021/07/26 06:57:04;;;;;;;;;;;;;;;21.41;65.36;101726.84;5137153;27;19946;-70
2021/07/26 06:59:31;;;;;;;;;;;;;;;21.72;64.45;101732.13;5136901;27;19927;-70
2021/07/26 07:01:58;;;;;;;;;;;;;;;22.16;63.34;101733.53;5136908;27;19923;-70
2021/07/26 07:04:26;;;;;;;;;;;;;;;22.20;62.65;101734.13;5136489;27;19923;-71
2021/07/26 07:06:52;;;;;;;;;;;;;;;22.77;61.37;101729.00;5136700;27;19924;-71
2021/07/26 07:09:19;;;;;;;;;;;;;;;22.41;61.82;101727.88;5136721;27;19930;-70
2021/07/26 07:11:45;;;;;;;;;;;;;;;22.24;63.83;101740.81;5136762;27;20261;-71
2021/07/26 07:14:12;;;;;;;;;;;;;;;22.98;61.65;101740.31;5136985;27;19923;-71
2021/07/26 07:16:38;;;;;;;;;;;;;;;23.36;60.75;101735.94;5136623;27;19924;-71
2021/07/26 07:19:05;;;;;;;;;;;;;;;23.40;59.97;101734.66;5136523;27;19930;-71
2021/07/26 07:21:33;;;;;;;;;;;;;;;24.23;58.12;101740.03;5136247;27;19931;-72
2021/07/26 07:24:01;;;;;;;;;;;;;;;25.37;53.96;101744.69;5136612;27;19931;-70
2021/07/26 07:26:28;;;;;;;;;;;;;;;25.50;53.75;101738.94;5136004;27;19968;-71
2021/07/26 07:28:55;;;;;;;;;;;;;;;24.68;55.92;101736.47;5136192;27;20004;-71
2021/07/26 07:31:26;;;;;;;;;;;;;;;25.46;53.66;101741.09;5135723;27;19928;-72
2021/07/26 07:33:53;;;;;;;;;;;;;;;25.72;53.56;101743.69;5136187;27;19923;-72
2021/07/26 07:36:21;;;;;;;;;;;;;;;27.37;48.39;101745.63;5136193;27;20393;-71
2021/07/26 07:38:49;;;;;;;;;;;;;;;26.43;51.60;101746.94;5136472;27;19927;-71
2021/07/26 07:41:16;;;;;;;;;;;;;;;26.09;52.21;101747.03;5136183;27;19923;-72
2021/07/26 07:43:43;;;;;;;;;;;;;;;26.32;51.06;101749.91;5135858;27;19962;-71
2021/07/26 07:46:09;;;;;;;;;;;;;;;26.10;51.96;101740.69;5135751;27;19923;-69
2021/07/26 07:48:37;;;;;;;;;;;;;;;25.70;53.08;101743.03;5135551;27;20062;-69
2021/07/26 07:51:05;;;;;;;;;;;;;;;26.87;49.51;101744.84;5134752;27;20309;-71
2021/07/26 07:53:32;;;;;;;;;;;;;;;26.42;51.18;101751.44;5135867;27;19923;-73
2021/07/26 07:56:01;;;;;;;;;;;;;;;27.23;50.30;101744.50;5135919;27;19931;-72
2021/07/26 07:58:27;;;;;;;;;;;;;;;27.37;50.10;101748.28;5135400;27;19930;-71
2021/07/26 08:00:56;;;;;;;;;;;;;;;26.24;51.92;101758.75;5136108;27;19923;-65
2021/07/26 08:03:23;;;;;;;;;;;;;;;25.75;53.06;101755.88;5135581;27;20022;-71
2021/07/26 08:05:49;;;;;;;;;;;;;;;25.38;53.53;101757.00;5135707;27;20409;-71
2021/07/26 08:08:16;;;;;;;;;;;;;;;26.77;51.75;101751.31;5135466;27;19930;-71
2021/07/26 08:10:43;;;;;;;;;;;;;;;27.39;49.26;101759.66;5135116;27;19935;-68
2021/07/26 08:13:11;;;;;;;;;;;;;;;26.67;50.56;101764.84;5135461;27;19928;-72
2021/07/26 08:15:37;;;;;;;;;;;;;;;26.10;51.29;101776.22;5135516;27;19924;-73
2021/07/26 08:18:04;;;;;;;;;;;;;;;25.87;52.56;101767.97;5135759;27;20172;-71
2021/07/26 08:20:31;;;;;;;;;;;;;;;27.45;49.44;101766.13;5135203;27;19923;-72
2021/07/26 08:22:57;;;;;;;;;;;;;;;27.60;48.38;101769.75;5135193;27;19931;-72
2021/07/26 08:25:24;;;;;;;;;;;;;;;27.39;47.83;101772.19;5134965;27;19923;-72
2021/07/26 08:27:51;;;;;;;;;;;;;;;26.45;48.86;101779.63;5135166;27;19924;-72
2021/07/26 08:30:24;;;;;;;;;;;;;;;27.53;46.78;101771.44;5135478;27;19924;-69
2021/07/26 08:32:51;;;;;;;;;;;;;;;28.08;46.48;101775.97;5135443;27;19924;-68
2021/07/26 08:35:18;;;;;;;;;;;;;;;28.96;44.01;101781.91;5135151;27;19930;-68
2021/07/26 08:37:44;;;;;;;;;;;;;;;28.04;45.71;101771.97;5134883;27;19930;-71
2021/07/26 08:40:12;;;;;;;;;;;;;;;29.06;44.21;101778.00;5135223;27;19930;-72
2021/07/26 08:42:39;;;;;;;;;;;;;;;29.56;42.75;101780.97;5134453;27;20389;-71
2021/07/26 08:45:06;;;;;;;;;;;;;;;28.04;45.30;101793.34;5134627;27;20385;-71
2021/07/26 08:47:35;;;;;;;;;;;;;;;28.92;44.04;101783.28;5133960;27;20305;-72
2021/07/26 08:50:04;;;;;;;;;;;;;;;29.45;42.18;101784.97;5134592;27;19930;-72
2021/07/26 08:52:33;;;;;;;;;;;;;;;28.90;42.91;101791.47;5134462;27;19923;-72
2021/07/26 08:55:00;;;;;;;;;;;;;;;29.27;42.53;101788.00;5134971;27;19930;-72
2021/07/26 08:57:27;;;;;;;;;;;;;;;29.85;42.40;101785.53;5134603;27;19923;-71
2021/07/26 08:59:54;;;;;;;;;;;;;;;29.79;41.37;101794.31;5134506;27;20389;-72
2021/07/26 09:02:21;;;;;;;;;;;;;;;29.98;41.07;101789.38;5134432;27;19923;-72
2021/07/26 09:04:49;;;;;;;;;;;;;;;28.59;43.08;101794.22;5134837;27;19946;-72
2021/07/26 09:07:24;;;;;;;;;;;;;;;29.88;41.50;101787.84;5134400;27;20365;-71
2021/07/26 09:09:51;;;;;;;;;;;;;;;31.39;38.11;101788.75;5134593;27;19931;-71
2021/07/26 09:12:29;;;;;;;;;;;;;;;31.83;37.81;101789.38;5134638;27;19924;-73
2021/07/26 09:14:56;;;;;;;;;;;;;;;32.23;36.13;101787.69;5134333;27;19973;-72
2021/07/26 09:17:22;;;;;;;;;;;;;;;32.79;35.30;101788.44;5134003;27;20385;-71
2021/07/26 09:19:58;;;;;;;;;;;;;;;33.23;34.49;101786.97;5134131;27;19923;-72
2021/07/26 09:22:27;;;;;;;;;;;;;;;31.24;38.59;101786.13;5133921;27;19923;-72
2021/07/26 09:25:10;;;;;;;;;;;;;;;33.44;34.72;101786.72;5134418;27;19927;-72
2021/07/26 09:27:37;;;;;;;;;;;;;;;30.56;38.02;101785.72;5133778;27;20365;-71
2021/07/26 09:30:13;;;;;;;;;;;;;;;31.31;38.33;101788.84;5133947;27;19924;-73
2021/07/26 09:32:40;;;;;;;;;;;;;;;31.24;37.43;101788.00;5134001;27;19924;-72
2021/07/26 09:35:09;;;;;;;;;;;;;;;32.18;35.86;101784.75;5134106;27;19946;-72
2021/07/26 09:37:36;;;;;;;;;;;;;;;33.39;32.80;101789.22;5133858;27;19924;-72
2021/07/26 09:40:20;;;;;;;;;;;;;;;31.99;35.35;101786.38;5133775;27;19927;-73
2021/07/26 09:42:47;;;;;;;;;;;;;;;34.62;31.83;101791.81;5133942;27;19928;-73
2021/07/26 09:45:23;;;;;;;;;;;;;;;35.00;31.18;101792.75;5134160;27;19924;-72
2021/07/26 09:48:05;;;;;;;;;;;;;;;33.41;32.58;101792.53;5133392;27;19949;-72
2021/07/26 09:50:36;;;;;;;;;;;;;;;32.93;34.32;101796.28;5133411;27;19927;-72
2021/07/26 09:53:07;;;;;;;;;;;;;;;31.90;35.99;101787.53;5133611;27;19927;-72
2021/07/26 09:55:34;;;;;;;;;;;;;;;31.40;34.85;101792.25;5133776;27;19953;-72
2021/07/26 09:58:01;;;;;;;;;;;;;;;31.84;34.14;101791.03;5133583;27;20351;-70
2021/07/26 10:00:28;;;;;;;;;;;;;;;33.58;31.73;101788.38;5133299;27;20373;-71
2021/07/26 10:02:55;;;;;;;;;;;;;;;32.36;34.18;101786.06;5133557;27;19995;-71
2021/07/26 10:05:23;;;;;;;;;;;;;;;32.53;33.44;101792.75;5133138;27;19924;-71
2021/07/26 10:07:51;;;;;;;;;;;;;;;31.65;35.17;101788.06;5133760;27;20289;-71
2021/07/26 10:10:18;;;;;;;;;;;;;;;32.53;34.21;101790.06;5133467;28;19924;-70
2021/07/26 10:12:45;;;;;;;;;;;;;;;33.36;32.47;101782.38;5132821;27;19923;-71
2021/07/26 10:15:13;;;;;;;;;;;;;;;32.59;34.34;101781.16;5133585;28;19965;-70
2021/07/26 10:17:40;;;;;;;;;;;;;;;31.37;34.82;101782.69;5133098;28;20366;-72
2021/07/26 10:20:08;;;;;;;;;;;;;;;32.56;34.36;101794.22;5133324;28;19931;-74
2021/07/26 10:22:35;;;;;;;;;;;;;;;33.83;31.70;101785.78;5133041;28;19931;-72
2021/07/26 10:25:07;;;;;;;;;;;;;;;32.63;32.51;101787.78;5133363;28;19924;-72
2021/07/26 10:27:35;;;;;;;;;;;;;;;29.97;37.06;101796.63;5133222;28;19997;-71
2021/07/26 10:30:02;;;;;;;;;;;;;;;31.63;35.57;101792.81;5133168;28;19924;-72
2021/07/26 10:32:33;;;;;;;;;;;;;;;31.38;35.98;101788.94;5133298;28;19962;-72
2021/07/26 10:35:00;;;;;;;;;;;;;;;32.14;33.99;101796.13;5133065;28;19923;-72
2021/07/26 10:37:46;;;;;;;;;;;;;;;31.57;35.03;101798.13;5132885;28;20293;-71
2021/07/26 10:40:20;;;;;;;;;;;;;;;32.72;32.67;101791.94;5133417;28;19923;-72
2021/07/26 10:42:47;;;;;;;;;;;;;;;33.34;32.66;101791.72;5133381;28;19934;-72
2021/07/26 10:45:28;;;;;;;;;;;;;;;32.58;33.16;101787.59;5133025;28;20400;-72
2021/07/26 10:48:10;;;;;;;;;;;;;;;30.91;36.35;101790.44;5131850;28;19923;-71
2021/07/26 10:50:39;;;;;;;;;;;;;;;32.96;32.41;101792.34;5132040;28;19929;-72
2021/07/26 10:53:06;;;;;;;;;;;;;;;31.56;34.48;101788.41;5133072;28;20288;-71
2021/07/26 10:55:53;;;;;;;;;;;;;;;31.52;35.03;101784.44;5133000;28;19923;-71
2021/07/26 10:58:34;;;;;;;;;;;;;;;35.41;30.43;101785.94;5133254;28;19924;-72
2021/07/26 11:03:55;;;;;;;;;;;;;;;35.02;29.03;101788.78;5130927;27;19912;-72
2021/07/26 11:06:37;;;;;;;;;;;;;;;33.29;32.78;101783.41;5130561;28;19931;-71
2021/07/26 11:09:18;;;;;;;;;;;;;;;31.65;36.18;101785.38;5130432;28;19971;-72
2021/07/26 11:11:45;;;;;;;;;;;;;;;33.65;31.97;101780.22;5130216;28;19924;-71
2021/07/26 11:14:13;;;;;;;;;;;;;;;33.65;31.84;101784.81;5130946;28;19924;-71
2021/07/26 11:17:00;;;;;;;;;;;;;;;33.20;32.49;101776.63;5130578;28;19923;-71
2021/07/26 11:19:32;;;;;;;;;;;;;;;33.57;32.38;101780.47;5130235;28;19928;-71
2021/07/26 11:21:58;;;;;;;;;;;;;;;34.53;30.58;101786.84;5130769;28;19923;-71
2021/07/26 11:24:39;;;;;;;;;;;;;;;35.72;29.98;101785.78;5130107;28;20307;-71
2021/07/26 11:27:06;;;;;;;;;;;;;;;35.67;29.33;101782.09;5130142;27;20293;-71
2021/07/26 11:29:33;;;;;;;;;;;;;;;36.30;27.42;101787.13;5130434;28;19961;-71
2021/07/26 11:31:59;;;;;;;;;;;;;;;35.71;27.18;101777.88;5130288;28;19924;-72
2021/07/26 11:34:28;;;;;;;;;;;;;;;33.53;30.79;101779.22;5130376;28;19924;-71
2021/07/26 11:37:08;;;;;;;;;;;;;;;35.18;29.68;101789.28;5130496;28;19924;-71
2021/07/26 11:39:45;;;;;;;;;;;;;;;35.10;30.09;101787.69;5129856;28;19969;-71
2021/07/26 11:42:11;;;;;;;;;;;;;;;36.81;27.21;101787.56;5130088;28;20290;-71
2021/07/26 11:44:38;;;;;;;;;;;;;;;36.88;27.43;101782.06;5129875;28;19923;-72
2021/07/26 11:47:05;;;;;;;;;;;;;;;37.92;25.95;101782.97;5130360;28;19924;-72
2021/07/26 11:49:31;;;;;;;;;;;;;;;36.73;27.15;101777.91;5129540;28;20370;-72
2021/07/26 11:52:07;;;;;;;;;;;;;;;36.60;26.55;101776.25;5130193;28;19924;-72
2021/07/26 11:54:34;;;;;;;;;;;;;;;35.24;28.39;101775.69;5129732;28;20335;-72
2021/07/26 11:57:07;;;;;;;;;;;;;;;36.49;26.65;101778.91;5130161;28;19924;-73
2021/07/26 11:59:34;;;;;;;;;;;;;;;37.54;24.55;101771.91;5129784;28;19924;-72
2021/07/26 12:02:05;;;;;;;;;;;;;;;36.03;26.37;101766.84;5134827;27;19927;-72
2021/07/26 12:04:32;;;;;;;;;;;;;;;36.44;26.91;101773.38;5150677;27;19960;-72
2021/07/26 12:07:00;;;;;;;;;;;;;;;35.59;28.41;101764.31;5150496;27;19924;-73
2021/07/26 12:09:28;;;;;;;;;;;;;;;35.90;26.75;101765.97;5150112;27;20175;-73
2021/07/26 12:11:55;;;;;;;;;;;;;;;36.69;25.48;101770.50;5150094;27;20408;-72
2021/07/26 12:14:26;;;;;;;;;;;;;;;35.79;27.68;101764.06;5141409;27;19924;-72
2021/07/26 12:17:03;;;;;;;;;;;;;;;36.88;25.19;101773.91;5136258;27;19923;-72
2021/07/26 12:19:30;;;;;;;;;;;;;;;36.16;26.52;101766.69;5136138;27;20387;-72
2021/07/26 12:21:59;;;;;;;;;;;;;;;35.45;28.95;101765.47;5136073;27;19923;-73
2021/07/26 12:24:44;;;;;;;;;;;;;;;34.44;30.36;101767.41;5136246;27;19966;-72
2021/07/26 12:27:12;;;;;;;;;;;;;;;34.00;31.67;101761.81;5135800;27;20323;-74
2021/07/26 12:29:53;;;;;;;;;;;;;;;34.42;29.32;101761.38;5135661;27;20374;-73
2021/07/26 12:32:19;;;;;;;;;;;;;;;36.13;25.67;101759.03;5136310;27;19924;-73
2021/07/26 12:35:01;;;;;;;;;;;;;;;36.66;26.03;101755.53;5136158;27;19927;-73
2021/07/26 12:37:27;;;;;;;;;;;;;;;37.41;25.43;101760.22;5134611;27;19934;-72
2021/07/26 12:39:54;;;;;;;;;;;;;;;37.46;25.54;101754.88;5135739;27;20401;-70
2021/07/26 12:42:22;;;;;;;;;;;;;;;36.46;26.83;101753.09;5135852;27;19924;-73
2021/07/26 12:44:49;;;;;;;;;;;;;;;37.44;25.85;101754.28;5135533;27;20292;-72